Time;durP1;ratioP1;P1;durP2;ratioP2;P2;SDS_P1;SDS_P2;PMS_P1;PMS_P2;Temp;Humidity;BMP_temperature;BMP_pressure;BME280_temperature;BME280_humidity;BME280_pressure;Samples;Min_cycle;Max_cycle;Signal;HPM_P1;HPM_P2
2022/01/28 00:02:45;;;;;;;9.70;1.92;;;;;;;2.70;100.00;100920.16;5015234;28;20048;-72
2022/01/28 00:04:55;;;;;;;11.57;2.22;;;;;;;2.61;100.00;100920.00;5014659;28;20037;-72
2022/01/28 00:07:21;;;;;;;12.15;2.03;;;;;;;2.62;100.00;100927.06;5015264;28;20101;-73
2022/01/28 00:09:46;;;;;;;10.38;2.10;;;;;;;2.53;100.00;100928.72;5036180;22;20056;-77
2022/01/28 00:12:12;;;;;;;16.65;2.50;;;;;;;2.51;100.00;100945.38;5036948;28;20094;-78
2022/01/28 00:20:59;;;;;;;16.17;2.42;;;;;;;2.51;100.00;100938.34;5015345;28;20083;-78
2022/01/28 00:37:00;;;;;;;;;;;;;;;2.63;100.00;100955.22;5035835;28;20250;-77
2022/01/28 00:39:25;;;;;;;18.55;2.88;;;;;;;2.60;100.00;100949.91;5036563;28;20429;-77
2022/01/28 00:41:51;;;;;;;15.40;2.63;;;;;;;2.60;100.00;100952.53;5036036;28;20064;-77
2022/01/28 00:44:18;;;;;;;18.48;3.38;;;;;;;2.52;100.00;100952.44;5035845;28;20096;-77
2022/01/28 00:46:43;;;;;;;14.60;2.83;;;;;;;2.60;100.00;100955.19;5035570;28;20475;-77
2022/01/28 00:49:09;;;;;;;21.58;2.78;;;;;;;2.59;100.00;100959.56;5035646;28;20029;-78
2022/01/28 00:51:34;;;;;;;21.80;3.78;;;;;;;2.56;100.00;100964.78;5037399;28;20033;-78
2022/01/28 00:54:00;;;;;;;17.02;3.72;;;;;;;2.52;100.00;100974.41;5036676;28;20029;-78
2022/01/28 00:56:25;;;;;;;16.63;2.58;;;;;;;2.57;100.00;100977.13;5036857;28;20036;-78
2022/01/28 00:58:50;;;;;;;17.83;2.20;;;;;;;2.56;100.00;100976.22;5036492;28;20482;-78
2022/01/28 01:01:16;;;;;;;15.60;3.20;;;;;;;2.62;100.00;100991.25;5037363;28;20033;-78
2022/01/28 01:03:41;;;;;;;9.20;2.10;;;;;;;2.62;100.00;101007.06;5035478;28;20049;-78
2022/01/28 01:06:06;;;;;;;18.90;2.83;;;;;;;2.60;100.00;100992.09;5036420;28;20474;-78
2022/01/28 01:08:32;;;;;;;19.20;2.45;;;;;;;2.67;100.00;101001.88;5035780;28;20056;-78
2022/01/28 01:10:58;;;;;;;18.35;3.10;;;;;;;2.64;100.00;100999.19;5035869;28;20036;-78
2022/01/28 01:13:23;;;;;;;12.15;2.55;;;;;;;2.59;100.00;101003.50;5034420;28;20017;-78
2022/01/28 01:15:54;;;;;;;14.70;2.90;;;;;;;2.60;100.00;101007.91;5035620;28;20440;-77
2022/01/28 01:18:28;;;;;;;18.33;3.05;;;;;;;2.65;100.00;101014.16;5036008;28;20029;-78
2022/01/28 01:21:01;;;;;;;11.38;2.30;;;;;;;2.63;100.00;101024.66;5035065;28;20158;-78
2022/01/28 01:23:31;;;;;;;9.18;2.10;;;;;;;2.68;100.00;101036.16;5036202;28;20033;-78
2022/01/28 01:28:33;;;;;;;10.63;2.55;;;;;;;2.63;100.00;101044.88;5035204;28;20025;-77
2022/01/28 01:31:01;;;;;;;11.80;2.33;;;;;;;2.59;100.00;101035.13;5035361;28;20018;-78
2022/01/28 01:33:29;;;;;;;19.33;2.60;;;;;;;2.43;100.00;101032.25;5034511;28;20025;-78
2022/01/28 01:35:54;;;;;;;15.02;2.55;;;;;;;2.41;100.00;101052.44;5035453;28;20025;-78
2022/01/28 01:38:25;;;;;;;20.27;2.50;;;;;;;2.36;100.00;101047.09;5035573;28;20032;-78
2022/01/28 01:40:54;;;;;;;10.13;2.35;;;;;;;2.32;100.00;101040.88;5034741;28;20560;-77
2022/01/28 01:53:45;;;;;;;19.00;3.03;;;;;;;2.21;100.00;101071.47;5034881;28;20056;-77
2022/01/28 01:56:12;;;;;;;12.48;2.22;;;;;;;2.14;100.00;101072.22;5034579;28;20025;-77
2022/01/28 01:58:38;;;;;;;11.35;2.17;;;;;;;2.20;100.00;101077.56;5034199;28;20026;-77
2022/01/28 02:01:03;;;;;;;17.50;2.92;;;;;;;2.18;100.00;101081.94;5034384;28;20032;-77
2022/01/28 02:03:29;;;;;;;17.23;2.83;;;;;;;2.20;100.00;101082.84;5034306;28;20394;-77
2022/01/28 02:05:59;;;;;;;14.43;2.28;;;;;;;2.21;100.00;101080.25;5033589;28;20017;-78
2022/01/28 02:08:26;;;;;;;15.55;3.10;;;;;;;2.22;100.00;101086.38;5034878;28;20382;-78
2022/01/28 02:10:57;;;;;;;13.25;2.80;;;;;;;2.20;100.00;101090.75;5033781;28;20108;-77
2022/01/28 02:13:23;;;;;;;17.48;3.03;;;;;;;2.17;100.00;101093.31;5034726;28;20017;-78
2022/01/28 02:15:48;;;;;;;16.85;2.92;;;;;;;2.16;100.00;101087.19;5034642;28;20060;-78
2022/01/28 02:18:14;;;;;;;15.10;2.78;;;;;;;2.22;100.00;101094.28;5035000;28;20025;-78
2022/01/28 02:20:42;;;;;;;16.27;2.90;;;;;;;2.21;100.00;101092.53;5034960;28;20075;-78
2022/01/28 02:23:08;;;;;;;16.73;2.60;;;;;;;2.20;100.00;101110.09;5033118;28;20429;-78
2022/01/28 02:25:34;;;;;;;14.90;2.67;;;;;;;2.20;100.00;101106.56;5034978;28;20044;-78
2022/01/28 02:28:06;;;;;;;17.48;2.60;;;;;;;2.25;100.00;101107.53;5033754;28;20403;-78
2022/01/28 02:30:32;;;;;;;15.30;2.95;;;;;;;2.14;100.00;101101.19;5034517;28;20434;-77
2022/01/28 02:33:08;;;;;;;16.77;2.63;;;;;;;2.23;100.00;101109.25;5034858;28;20025;-77
2022/01/28 02:35:34;;;;;;;13.98;2.92;;;;;;;2.09;100.00;101098.44;5033765;28;20021;-78
2022/01/28 02:37:59;;;;;;;17.20;2.53;;;;;;;2.17;100.00;101114.41;5033448;28;20028;-78
2022/01/28 02:40:25;;;;;;;16.60;2.67;;;;;;;2.05;100.00;101113.34;5033912;28;20045;-78
2022/01/28 02:42:59;;;;;;;13.32;2.75;;;;;;;2.11;100.00;101121.34;5033014;28;20097;-78
2022/01/28 02:45:28;;;;;;;13.15;3.30;;;;;;;2.03;100.00;101117.69;5034416;28;20029;-77
2022/01/28 02:47:59;;;;;;;14.77;2.55;;;;;;;2.05;100.00;101118.59;5034441;28;20026;-78
2022/01/28 02:50:27;;;;;;;16.05;2.80;;;;;;;2.03;100.00;101149.31;5034904;28;20022;-77
2022/01/28 02:53:03;;;;;;;15.95;2.70;;;;;;;2.07;100.00;101127.41;5032732;28;20021;-78
2022/01/28 02:55:31;;;;;;;13.65;3.83;;;;;;;2.11;100.00;101134.50;5034659;28;20021;-78
2022/01/28 02:58:14;;;;;;;16.35;2.90;;;;;;;2.09;100.00;101141.50;5034556;28;20025;-78
2022/01/28 03:00:40;;;;;;;21.37;3.60;;;;;;;2.17;100.00;101146.03;5035245;28;20026;-78
2022/01/28 03:03:06;;;;;;;21.10;3.75;;;;;;;2.20;100.00;101138.19;5038200;28;20732;-78
2022/01/28 03:05:34;;;;;;;17.58;3.35;;;;;;;2.25;100.00;101138.25;5037235;28;20033;-78
2022/01/28 03:08:02;;;;;;;18.48;2.45;;;;;;;2.20;100.00;101143.47;5038710;28;20032;-78
2022/01/28 03:15:51;;;;;;;21.85;3.30;;;;;;;2.21;100.00;101164.59;5017130;28;20033;-78
2022/01/28 03:18:21;;;;;;;18.42;2.70;;;;;;;2.22;100.00;101158.44;5036411;28;20536;-78
2022/01/28 03:23:17;;;;;;;17.60;2.92;;;;;;;2.20;100.00;101177.72;5037702;28;20501;-78
2022/01/28 03:25:44;;;;;;;15.88;3.17;;;;;;;2.16;100.00;101171.50;5037956;28;20037;-78
2022/01/28 03:28:10;;;;;;;14.07;2.63;;;;;;;2.14;100.00;101185.53;5036653;28;20497;-78
2022/01/28 03:30:36;;;;;;;17.63;2.78;;;;;;;2.09;100.00;101173.13;5037647;28;20029;-78
2022/01/28 03:33:01;;;;;;;13.07;2.38;;;;;;;2.16;100.00;101175.91;5037232;28;20032;-78
2022/01/28 03:35:27;;;;;;;16.45;2.55;;;;;;;1.98;100.00;101166.78;5036475;28;20029;-78
2022/01/28 03:37:59;;;;;;;16.30;3.15;;;;;;;1.86;100.00;101168.28;5036071;28;20026;-78
2022/01/28 03:40:25;;;;;;;11.70;2.58;;;;;;;1.87;100.00;101175.34;5036138;28;20159;-78
2022/01/28 03:42:50;;;;;;;15.63;2.78;;;;;;;1.87;100.00;101180.63;5037180;28;20415;-77
2022/01/28 03:45:16;;;;;;;10.30;2.35;;;;;;;1.84;100.00;101184.91;5037640;28;20029;-78
2022/01/28 03:47:41;;;;;;;11.75;2.33;;;;;;;1.84;100.00;101201.63;5037631;28;20104;-78
2022/01/28 03:50:07;;;;;;;12.18;2.63;;;;;;;1.86;100.00;101189.34;5036684;28;20030;-78
2022/01/28 03:52:32;;;;;;;13.80;2.90;;;;;;;1.86;100.00;101202.53;5038158;28;20033;-78
2022/01/28 03:54:57;;;;;;;14.00;2.47;;;;;;;1.87;100.00;101209.59;5037529;28;20385;-78
2022/01/28 03:57:23;;;;;;;16.40;2.75;;;;;;;1.95;100.00;101208.84;5037744;28;20037;-77
2022/01/28 03:59:48;;;;;;;15.68;2.83;;;;;;;1.96;100.00;101208.00;5037511;28;20029;-78
2022/01/28 04:02:18;;;;;;;15.32;3.42;;;;;;;1.96;100.00;101229.09;5037048;28;20493;-78
2022/01/28 04:12:50;;;;;;;14.18;2.80;;;;;;;2.04;100.00;101230.09;5037098;28;20036;-78
2022/01/28 04:17:43;;;;;;;19.20;2.63;;;;;;;2.04;100.00;101235.38;5037298;28;20029;-78
2022/01/28 04:20:08;;;;;;;18.27;2.60;;;;;;;2.00;100.00;101249.34;5036818;28;20028;-78
2022/01/28 04:22:34;;;;;;;15.07;2.90;;;;;;;2.00;100.00;101246.72;5035265;28;20030;-78
2022/01/28 04:24:59;;;;;;;25.05;2.50;;;;;;;1.98;100.00;101266.88;5036444;28;20021;-77
2022/01/28 04:27:24;;;;;;;15.68;2.75;;;;;;;2.02;100.00;101268.72;5036698;28;20037;-78
2022/01/28 04:29:50;;;;;;;16.83;2.50;;;;;;;1.97;100.00;101271.25;5036751;28;20104;-78
2022/01/28 04:32:17;;;;;;;14.77;2.42;;;;;;;2.03;100.00;101269.59;5036472;28;20474;-78
2022/01/28 04:34:42;;;;;;;15.43;2.67;;;;;;;2.12;100.00;101285.59;5036211;28;20025;-78
2022/01/28 04:47:31;;;;;;;12.57;2.47;;;;;;;2.14;100.00;101288.28;5035725;28;20025;-78
2022/01/28 04:52:53;;;;;;;14.52;3.03;;;;;;;2.16;100.00;101290.09;5034591;28;20177;-77
2022/01/28 05:10:56;;;;;;;15.75;2.75;;;;;;;2.06;100.00;101307.44;5037697;28;20048;-78
2022/01/28 05:16:12;;;;;;;17.48;2.55;;;;;;;2.08;100.00;101310.13;5035256;28;20493;-77
2022/01/28 05:26:41;;;;;;;25.48;3.80;;;;;;;2.07;100.00;101314.50;5035313;28;20033;-78
2022/01/28 05:29:07;;;;;;;17.58;4.13;;;;;;;2.06;100.00;101328.50;5035757;28;20025;-78
2022/01/28 05:31:32;;;;;;;17.15;3.35;;;;;;;2.08;100.00;101324.19;5034357;28;20021;-78
2022/01/28 05:33:58;;;;;;;20.85;3.47;;;;;;;2.06;100.00;101323.25;5038269;28;20049;-78
2022/01/28 05:36:23;;;;;;;17.60;2.97;;;;;;;2.09;100.00;101322.41;5037140;28;20026;-78
2022/01/28 05:38:49;;;;;;;19.50;3.47;;;;;;;2.09;100.00;101318.03;5036427;28;20029;-78
2022/01/28 05:41:14;;;;;;;24.08;3.50;;;;;;;2.00;100.00;101325.75;5038915;28;20121;-78
2022/01/28 05:43:39;;;;;;;20.20;3.60;;;;;;;2.03;100.00;101331.09;5038658;28;20394;-78
2022/01/28 05:46:05;;;;;;;22.73;3.78;;;;;;;2.08;100.00;101339.09;5038581;28;20025;-78
2022/01/28 05:48:30;;;;;;;16.33;3.28;;;;;;;1.99;100.00;101339.78;5035707;28;20505;-78
2022/01/28 05:50:56;;;;;;;14.45;3.15;;;;;;;1.99;100.00;101368.75;5037535;28;20052;-78
2022/01/28 05:53:21;;;;;;;16.50;4.05;;;;;;;2.06;100.00;101370.66;5036353;28;20029;-78
2022/01/28 05:55:46;;;;;;;17.73;3.92;;;;;;;2.14;100.00;101365.56;5036272;28;20040;-78
2022/01/28 05:58:12;;;;;;;20.35;3.33;;;;;;;2.02;100.00;101379.38;5034293;28;20104;-78
2022/01/28 06:00:37;;;;;;;19.92;3.05;;;;;;;2.00;100.00;101386.34;5035775;28;20492;-78
2022/01/28 06:03:02;;;;;;;16.45;3.28;;;;;;;2.03;100.00;101377.63;5035664;28;20025;-78
2022/01/28 06:05:30;;;;;;;17.48;3.08;;;;;;;1.92;100.00;101372.09;5036229;28;20029;-78
2022/01/28 06:07:59;;;;;;;21.70;3.67;;;;;;;1.94;100.00;101365.13;5035558;28;20036;-78
2022/01/28 06:10:26;;;;;;;21.95;3.75;;;;;;;1.87;100.00;101379.91;5052090;22;20069;-72
2022/01/28 06:12:52;;;;;;;15.52;3.42;;;;;;;1.82;100.00;101384.16;5031673;28;20029;-73
2022/01/28 06:15:17;;;;;;;20.25;4.05;;;;;;;1.78;100.00;101384.09;5032595;28;20052;-72
2022/01/28 06:17:43;;;;;;;20.63;3.08;;;;;;;1.84;100.00;101390.34;5032692;28;20021;-73
2022/01/28 06:20:10;;;;;;;23.90;3.67;;;;;;;1.88;100.00;101406.25;5031469;28;20478;-72
2022/01/28 06:22:40;;;;;;;25.80;4.25;;;;;;;1.88;100.00;101398.38;5032498;28;20033;-72
2022/01/28 06:25:07;;;;;;;17.00;3.30;;;;;;;1.85;100.00;101397.41;5032501;28;20026;-72
2022/01/28 06:27:32;;;;;;;26.80;5.20;;;;;;;1.95;100.00;101399.44;5032453;28;20072;-72
2022/01/28 06:29:57;;;;;;;21.60;3.60;;;;;;;1.96;100.00;101406.44;5032562;28;20431;-72
2022/01/28 06:32:23;;;;;;;19.45;3.60;;;;;;;1.91;100.00;101408.09;5031185;28;20021;-72
2022/01/28 06:34:48;;;;;;;22.90;3.65;;;;;;;1.83;100.00;101405.25;5031808;28;20593;-72
2022/01/28 06:37:13;;;;;;;21.63;3.65;;;;;;;1.91;100.00;101409.84;5036640;28;20031;-73
2022/01/28 06:39:39;;;;;;;23.02;3.70;;;;;;;1.88;100.00;101414.16;5035390;28;20025;-72
2022/01/28 06:42:04;;;;;;;19.67;3.80;;;;;;;1.80;100.00;101410.47;5036536;28;20446;-74
2022/01/28 06:44:31;;;;;;;23.23;3.75;;;;;;;1.82;100.00;101421.94;5036360;28;20070;-73
2022/01/28 06:46:57;;;;;;;25.15;3.55;;;;;;;1.93;100.00;101423.94;5035097;28;20021;-73
2022/01/28 06:49:22;;;;;;;21.17;3.80;;;;;;;1.83;100.00;101436.88;5036311;28;20152;-73
2022/01/28 06:51:47;;;;;;;18.67;3.58;;;;;;;1.87;100.00;101446.66;5036116;28;20033;-73
2022/01/28 06:54:12;;;;;;;29.67;4.68;;;;;;;1.95;100.00;101456.47;5036326;28;20018;-73
2022/01/28 06:56:38;;;;;;;17.48;3.33;;;;;;;1.97;100.00;101463.56;5036432;28;20025;-73
2022/01/28 06:59:03;;;;;;;19.45;3.33;;;;;;;2.03;100.00;101470.75;5036117;28;20022;-74
2022/01/28 07:01:28;;;;;;;21.00;3.80;;;;;;;2.06;100.00;101476.06;5036506;28;20320;-75
2022/01/28 07:03:54;;;;;;;24.55;3.20;;;;;;;2.06;100.00;101486.59;5034906;28;20116;-75
2022/01/28 07:06:19;;;;;;;27.95;4.47;;;;;;;2.05;100.00;101489.22;5034892;28;20079;-75
2022/01/28 07:08:45;;;;;;;25.00;3.70;;;;;;;2.06;100.00;101481.34;5036464;28;20030;-75
2022/01/28 07:11:10;;;;;;;16.45;3.22;;;;;;;2.06;100.00;101486.59;5036095;28;20383;-75
2022/01/28 07:13:36;;;;;;;18.52;3.72;;;;;;;2.08;100.00;101492.84;5036208;28;20017;-75
2022/01/28 07:16:01;;;;;;;21.30;3.85;;;;;;;2.08;100.00;101500.72;5036215;28;20033;-75
2022/01/28 07:18:26;;;;;;;20.55;3.75;;;;;;;2.15;100.00;101499.13;5035996;28;20116;-75
2022/01/28 07:20:51;;;;;;;16.20;3.88;;;;;;;2.08;100.00;101499.84;5034591;28;20120;-75
2022/01/28 07:23:17;;;;;;;21.60;3.75;;;;;;;2.16;100.00;101502.66;5034505;28;20402;-75
2022/01/28 07:25:42;;;;;;;21.33;4.00;;;;;;;2.18;100.00;101511.50;5036032;28;20064;-75
2022/01/28 07:28:08;;;;;;;26.15;4.68;;;;;;;2.09;100.00;101518.31;5035784;28;20026;-75
2022/01/28 07:30:33;;;;;;;14.02;3.60;;;;;;;2.10;100.00;101521.84;5034382;28;20048;-75
2022/01/28 07:33:00;;;;;;;18.83;3.20;;;;;;;2.13;100.00;101524.56;5035737;28;20021;-75
2022/01/28 07:35:26;;;;;;;21.33;3.40;;;;;;;2.16;100.00;101529.00;5035686;28;20022;-75
2022/01/28 07:37:52;;;;;;;19.75;3.88;;;;;;;2.14;100.00;101533.38;5034383;28;20124;-75
2022/01/28 07:40:17;;;;;;;24.75;3.80;;;;;;;2.25;100.00;101539.78;5035580;28;20101;-75
2022/01/28 07:42:42;;;;;;;19.92;3.65;;;;;;;2.19;100.00;101527.34;5035624;28;20156;-75
2022/01/28 07:45:10;;;;;;;17.17;3.38;;;;;;;2.23;100.00;101541.50;5035552;28;20032;-75
2022/01/28 07:47:36;;;;;;;22.70;3.40;;;;;;;2.21;100.00;101543.19;5035117;28;20032;-75
2022/01/28 07:50:03;;;;;;;17.75;3.30;;;;;;;2.25;100.00;101547.69;5035526;28;20025;-75
2022/01/28 07:52:28;;;;;;;17.50;3.40;;;;;;;2.30;100.00;101553.97;5035368;28;20397;-75
2022/01/28 07:54:53;;;;;;;20.83;4.10;;;;;;;2.27;100.00;101556.50;5035578;28;20517;-75
2022/01/28 07:57:19;;;;;;;26.48;4.03;;;;;;;2.27;100.00;101561.78;5035602;28;20032;-75
2022/01/28 07:59:44;;;;;;;21.38;3.70;;;;;;;2.28;100.00;101560.94;5035514;28;20035;-75
2022/01/28 08:02:10;;;;;;;20.02;3.85;;;;;;;2.29;100.00;101562.75;5035234;28;20037;-75
2022/01/28 08:04:35;;;;;;;15.77;3.63;;;;;;;2.25;100.00;101571.41;5035196;28;20474;-75
2022/01/28 08:07:00;;;;;;;23.48;3.97;;;;;;;2.28;100.00;101566.22;5035353;28;20026;-75
2022/01/28 08:09:25;;;;;;;18.15;3.33;;;;;;;2.32;100.00;101573.34;5035233;28;20025;-75
2022/01/28 08:11:50;;;;;;;16.30;3.58;;;;;;;2.32;100.00;101583.03;5035075;28;20128;-75
2022/01/28 08:14:16;;;;;;;17.55;3.30;;;;;;;2.31;100.00;101579.47;5035028;28;20013;-75
2022/01/28 08:16:41;;;;;;;25.88;4.18;;;;;;;2.36;100.00;101574.31;5035175;28;20026;-75
2022/01/28 08:19:06;;;;;;;22.17;3.92;;;;;;;2.41;100.00;101572.69;5034940;28;20032;-75
2022/01/28 08:21:32;;;;;;;20.73;3.80;;;;;;;2.36;100.00;101578.69;5034801;28;20026;-75
2022/01/28 08:23:57;;;;;;;22.27;4.60;;;;;;;2.36;100.00;101578.69;5034711;28;20044;-75
2022/01/28 08:26:23;;;;;;;24.60;4.03;;;;;;;2.40;100.00;101580.53;5033468;28;20021;-75
2022/01/28 08:28:48;;;;;;;17.98;4.20;;;;;;;2.41;100.00;101599.06;5033400;28;20036;-75
2022/01/28 08:31:14;;;;;;;18.88;3.65;;;;;;;2.42;100.00;101605.22;5034687;28;20455;-75
2022/01/28 08:33:39;;;;;;;26.10;4.38;;;;;;;2.41;100.00;101601.69;5034721;28;20108;-75
2022/01/28 08:36:05;;;;;;;21.40;3.95;;;;;;;2.44;100.00;101611.44;5034564;28;20170;-75
2022/01/28 08:38:36;;;;;;;23.05;3.78;;;;;;;2.37;100.00;101620.91;5033207;28;20036;-75
2022/01/28 08:41:02;;;;;;;25.70;4.40;;;;;;;2.37;100.00;101622.66;5033197;28;20479;-75
2022/01/28 08:43:28;;;;;;;21.88;4.22;;;;;;;2.35;100.00;101625.25;5034227;28;20547;-75
2022/01/28 08:45:54;;;;;;;24.13;4.97;;;;;;;2.41;100.00;101635.06;5034320;28;20100;-75
2022/01/28 08:48:20;;;;;;;19.20;4.15;;;;;;;2.42;100.00;101637.72;5034319;28;20029;-75
2022/01/28 08:50:46;;;;;;;25.55;4.05;;;;;;;2.48;100.00;101631.72;5034232;28;20030;-75
2022/01/28 08:53:11;;;;;;;22.20;3.97;;;;;;;2.51;100.00;101631.81;5034256;28;20079;-75
2022/01/28 08:55:38;;;;;;;21.65;4.10;;;;;;;2.53;100.00;101630.09;5034166;28;20032;-75
2022/01/28 08:58:04;;;;;;;24.13;4.10;;;;;;;2.54;100.00;101636.28;5032108;28;20418;-75
2022/01/28 09:00:30;;;;;;;22.55;3.10;;;;;;;2.58;100.00;101648.66;5033024;28;20425;-75
2022/01/28 09:02:55;;;;;;;23.88;3.95;;;;;;;2.59;100.00;101636.38;5034268;28;20055;-75
2022/01/28 09:05:21;;;;;;;29.17;3.83;;;;;;;2.64;100.00;101633.03;5034344;28;20485;-75
2022/01/28 09:07:48;;;;;;;23.25;3.85;;;;;;;2.64;100.00;101637.38;5034212;28;20071;-75
2022/01/28 09:10:18;;;;;;;21.38;3.30;;;;;;;2.76;100.00;101642.06;5034132;28;20056;-75
2022/01/28 09:13:45;;;;;;;20.45;3.83;;;;;;;2.67;100.00;101648.03;5033869;28;20104;-75
2022/01/28 09:15:41;;;;;;;17.80;3.47;;;;;;;2.68;100.00;101650.69;5028947;28;20036;-75
2022/01/28 09:18:09;;;;;;;26.58;4.50;;;;;;;2.70;100.00;101650.75;5032463;28;20060;-75
2022/01/28 09:20:36;;;;;;;24.73;4.13;;;;;;;2.75;100.00;101662.31;5033826;28;20021;-75
2022/01/28 09:23:02;;;;;;;16.98;3.63;;;;;;;2.78;100.00;101656.22;5033658;28;20489;-75
2022/01/28 09:25:28;;;;;;;26.00;4.22;;;;;;;2.83;100.00;101666.88;5033472;28;20033;-75
2022/01/28 09:27:54;;;;;;;21.98;3.83;;;;;;;2.85;100.00;101666.06;5033539;28;20037;-75
2022/01/28 09:30:20;;;;;;;26.05;4.25;;;;;;;2.90;100.00;101674.06;5033459;28;20032;-75
2022/01/28 09:32:45;;;;;;;24.00;4.15;;;;;;;2.97;100.00;101678.66;5032531;28;20017;-75
2022/01/28 09:35:10;;;;;;;16.73;4.38;;;;;;;3.03;100.00;101677.00;5033503;28;20508;-75
2022/01/28 09:37:36;;;;;;;26.38;3.88;;;;;;;3.06;100.00;101683.25;5032035;28;20172;-74
2022/01/28 09:40:03;;;;;;;29.27;4.25;;;;;;;3.13;100.00;101689.56;5033259;28;20509;-74
2022/01/28 09:42:32;;;;;;;28.25;4.38;;;;;;;3.11;100.00;101696.56;5033106;28;20029;-74
2022/01/28 09:44:59;;;;;;;27.15;3.80;;;;;;;3.18;100.00;101698.50;5032043;28;20029;-74
2022/01/28 09:47:26;;;;;;;24.73;4.03;;;;;;;3.09;100.00;101687.72;5033634;28;20049;-74
2022/01/28 09:49:51;;;;;;;17.77;3.65;;;;;;;3.11;100.00;101696.56;5033375;28;20028;-74
2022/01/28 09:52:18;;;;;;;22.20;4.80;;;;;;;3.08;100.00;101702.66;5033239;28;20052;-75
2022/01/28 09:54:46;;;;;;;20.65;3.47;;;;;;;3.08;100.00;101704.41;5033269;28;20040;-74
2022/01/28 09:57:12;;;;;;;22.85;3.65;;;;;;;3.19;100.00;101700.28;5033213;28;20203;-75
2022/01/28 09:59:38;;;;;;;20.85;4.13;;;;;;;3.15;100.00;101708.97;5032156;28;20061;-74
2022/01/28 10:02:04;;;;;;;25.05;4.22;;;;;;;3.19;100.00;101700.28;5033179;28;20478;-74
2022/01/28 10:04:29;;;;;;;18.65;4.32;;;;;;;3.23;100.00;101711.78;5033123;28;20026;-74
2022/01/28 10:06:55;;;;;;;22.00;3.88;;;;;;;3.29;100.00;101701.38;5033130;28;20021;-74
2022/01/28 10:09:23;;;;;;;28.55;5.03;;;;;;;3.46;100.00;101700.88;5032835;28;20021;-74
2022/01/28 10:11:51;;;;;;;25.50;4.38;;;;;;;3.46;100.00;101707.03;5032635;28;20497;-74
2022/01/28 10:14:20;;;;;;;16.15;3.22;;;;;;;3.63;100.00;101706.53;5032897;28;20094;-74
2022/01/28 10:17:02;;;;;;;24.70;4.15;;;;;;;3.68;100.00;101710.19;5032955;28;20489;-74
2022/01/28 10:19:38;;;;;;;26.00;4.28;;;;;;;3.67;99.39;101725.97;5033100;28;20025;-74
2022/01/28 10:22:16;;;;;;;22.08;4.07;;;;;;;3.64;99.15;101720.63;5032800;28;20544;-74
2022/01/28 10:24:41;;;;;;;20.30;3.65;;;;;;;3.66;100.00;101717.16;5032817;28;20127;-74
2022/01/28 10:27:09;;;;;;;27.30;4.13;;;;;;;3.67;98.25;101718.94;5033137;28;20565;-74
2022/01/28 10:29:39;;;;;;;18.58;3.85;;;;;;;3.70;96.08;101718.13;5032653;28;20029;-74
2022/01/28 10:32:10;;;;;;;17.50;3.35;;;;;;;3.70;96.07;101728.69;5032923;28;20024;-74
2022/01/28 10:34:36;;;;;;;18.35;5.13;;;;;;;3.62;95.11;101725.88;5032678;28;20026;-75
2022/01/28 10:37:28;;;;;;;25.25;4.00;;;;;;;3.65;98.05;101728.59;5031224;28;20025;-74
2022/01/28 10:40:00;;;;;;;14.00;3.35;;;;;;;3.81;98.69;101734.22;5032299;28;20029;-75
2022/01/28 10:42:25;;;;;;;26.92;4.20;;;;;;;3.89;97.05;101737.91;5032662;28;20028;-75
2022/01/28 10:44:59;;;;;;;23.17;3.43;;;;;;;4.01;95.53;101744.31;5032402;28;20025;-74
2022/01/28 10:47:45;;;;;;;19.60;3.50;;;;;;;4.01;93.52;101744.31;5031238;28;20293;-74
2022/01/28 10:50:17;;;;;;;23.13;3.00;;;;;;;4.06;94.31;101737.38;5032465;28;20041;-74
2022/01/28 10:52:43;;;;;;;17.80;2.97;;;;;;;4.23;93.95;101734.16;5032727;28;20025;-74
2022/01/28 10:55:15;;;;;;;19.30;3.92;;;;;;;4.09;89.63;101737.44;5031542;28;20422;-75
2022/01/28 10:57:41;;;;;;;23.60;3.83;;;;;;;4.05;91.75;101740.88;5031395;28;20018;-75
2022/01/28 11:00:07;;;;;;;26.40;4.10;;;;;;;4.15;92.32;101730.50;5031349;28;20394;-74
2022/01/28 11:02:33;;;;;;;28.40;3.72;;;;;;;4.22;92.07;101719.19;5032228;28;20025;-75
2022/01/28 11:04:58;;;;;;;23.95;3.53;;;;;;;4.34;92.61;101722.06;5031100;28;20116;-74
2022/01/28 11:07:27;;;;;;;14.40;3.38;;;;;;;4.20;91.00;101716.47;5032350;28;20439;-74
2022/01/28 11:09:52;;;;;;;21.33;3.35;;;;;;;4.23;91.33;101727.13;5032270;28;20394;-74
2022/01/28 11:12:18;;;;;;;20.27;3.58;;;;;;;4.26;91.51;101726.28;5032035;28;20036;-74
2022/01/28 11:14:43;;;;;;;18.05;3.30;;;;;;;4.24;93.05;101734.22;5032256;28;20466;-74
2022/01/28 11:17:11;;;;;;;20.92;3.55;;;;;;;4.18;92.04;101730.53;5032434;28;20033;-74
2022/01/28 11:19:38;;;;;;;22.65;3.70;;;;;;;4.20;93.68;101728.84;5030910;28;20029;-74
2022/01/28 11:22:26;;;;;;;21.23;3.28;;;;;;;4.30;93.17;101736.09;5034579;28;20058;-75
2022/01/28 11:25:06;;;;;;;21.40;3.90;;;;;;;4.23;90.84;101726.22;5036042;28;20108;-74
2022/01/28 11:27:34;;;;;;;21.30;3.80;;;;;;;4.38;91.21;101733.56;5035855;28;20049;-75
2022/01/28 11:30:22;;;;;;;22.30;4.07;;;;;;;4.46;90.70;101729.31;5035641;28;20548;-75
2022/01/28 11:33:05;;;;;;;26.65;3.38;;;;;;;4.45;89.99;101721.38;5035971;28;20079;-75
2022/01/28 11:35:37;;;;;;;14.80;3.42;;;;;;;4.51;91.54;101724.13;5034423;28;20014;-75
2022/01/28 11:38:25;;;;;;;21.73;3.35;;;;;;;4.53;90.83;101711.81;5035657;28;20021;-74
2022/01/28 11:41:08;;;;;;;21.92;3.42;;;;;;;4.67;92.09;101729.69;5035525;28;20029;-74
2022/01/28 11:43:42;;;;;;;19.85;4.03;;;;;;;4.55;91.38;101731.25;5034217;28;20029;-76
2022/01/28 11:46:31;;;;;;;17.38;2.83;;;;;;;4.55;90.46;101733.91;5034285;28;20029;-74
2022/01/28 11:48:56;;;;;;;23.92;3.55;;;;;;;4.53;91.49;101740.03;5034247;28;20025;-74
2022/01/28 11:51:31;;;;;;;20.05;3.28;;;;;;;4.46;90.36;101737.25;5035292;28;20091;-74
2022/01/28 11:53:58;;;;;;;21.42;3.75;;;;;;;4.65;91.45;101731.41;5034214;28;20022;-74
2022/01/28 11:56:24;;;;;;;17.88;3.22;;;;;;;4.94;91.17;101739.00;5035596;28;20057;-74
2022/01/28 11:59:09;;;;;;;19.02;3.35;;;;;;;4.85;89.24;101744.09;5035654;28;20029;-74
2022/01/28 12:01:40;;;;;;;20.80;4.28;;;;;;;4.57;88.94;101734.81;5034350;28;20047;-74
2022/01/28 12:04:24;;;;;;;13.82;3.28;;;;;;;4.45;89.78;101745.19;5035156;28;20029;-74
2022/01/28 12:07:00;;;;;;;21.50;3.30;;;;;;;4.35;89.73;101744.13;5035200;28;20033;-74
2022/01/28 12:09:26;;;;;;;26.65;3.92;;;;;;;4.41;89.94;101738.94;5035413;28;20386;-74
2022/01/28 12:11:52;;;;;;;33.55;5.15;;;;;;;4.34;89.20;101737.94;5051572;22;20557;-72
2022/01/28 12:14:38;;;;;;;26.35;3.80;;;;;;;4.28;89.63;101743.09;5035541;28;20088;-72
2022/01/28 12:17:36;;;;;;;19.48;3.58;;;;;;;4.29;91.11;101733.41;5035313;28;20033;-72
2022/01/28 12:20:46;;;;;;;19.45;4.28;;;;;;;4.42;91.83;101734.53;5035689;28;20497;-74
2022/01/28 12:23:11;;;;;;;29.35;4.40;;;;;;;4.53;90.24;101740.94;5005224;28;20044;-74
2022/01/28 12:25:39;;;;;;;22.33;3.60;;;;;;;4.50;90.92;101740.88;5015441;28;20022;-75
2022/01/28 12:28:32;;;;;;;25.75;4.32;;;;;;;4.63;90.46;101746.38;5015409;28;20263;-74
2022/01/28 12:31:01;;;;;;;23.83;4.05;;;;;;;4.67;89.54;101730.59;5015229;28;20514;-74
2022/01/28 12:33:31;;;;;;;21.13;3.30;;;;;;;4.62;89.24;101732.25;5014152;28;20030;-74
2022/01/28 12:35:58;;;;;;;21.25;3.65;;;;;;;4.62;88.23;101731.34;5015546;28;20614;-74
2022/01/28 12:38:29;;;;;;;25.13;4.40;;;;;;;4.56;89.52;101727.72;5015511;28;20029;-74
2022/01/28 12:40:57;;;;;;;21.60;3.35;;;;;;;4.54;89.30;101729.47;5015452;28;20030;-74
2022/01/28 12:43:23;;;;;;;19.40;3.50;;;;;;;4.67;89.16;101734.97;5013789;28;20411;-74
2022/01/28 12:46:07;;;;;;;24.45;3.85;;;;;;;4.63;87.86;101727.84;5013808;28;20407;-74
2022/01/28 12:48:33;;;;;;;12.77;3.10;;;;;;;4.64;88.49;101727.00;5013818;28;20026;-74
2022/01/28 12:51:01;;;;;;;17.65;3.30;;;;;;;4.63;89.30;101733.16;5013659;28;20025;-74
2022/01/28 12:53:39;;;;;;;22.60;4.07;;;;;;;4.68;87.04;101742.06;5015164;28;20026;-74
2022/01/28 12:56:05;;;;;;;19.60;3.42;;;;;;;4.89;84.69;101738.91;5014996;28;20042;-74